sensor_id;sensor_type;location;lat;lon;timestamp;pressure;altitude;pressure_sealevel;temperature;humidity
28181;BME280;15464;50.988;10.318;2023-12-04T00:02:00;99279.19;;;-4.59;100.00
28181;BME280;15464;50.988;10.318;2023-12-04T00:04:26;99279.16;;;-4.56;100.00
28181;BME280;15464;50.988;10.318;2023-12-04T00:06:53;99273.06;;;-4.54;100.00
28181;BME280;15464;50.988;10.318;2023-12-04T00:09:20;99272.09;;;-4.50;100.00
28181;BME280;15464;50.988;10.318;2023-12-04T00:11:47;99271.28;;;-4.50;100.00
28181;BME280;15464;50.988;10.318;2023-12-04T00:14:14;99263.50;;;-4.50;100.00
28181;BME280;15464;50.988;10.318;2023-12-04T00:16:41;99267.72;;;-4.46;100.00
28181;BME280;15464;50.988;10.318;2023-12-04T00:19:09;99258.94;;;-4.37;100.00
28181;BME280;15464;50.988;10.318;2023-12-04T00:21:36;99257.25;;;-4.40;100.00
28181;BME280;15464;50.988;10.318;2023-12-04T00:24:04;99252.97;;;-4.42;100.00
28181;BME280;15464;50.988;10.318;2023-12-04T00:26:31;99258.13;;;-4.41;100.00
28181;BME280;15464;50.988;10.318;2023-12-04T00:28:57;99250.09;;;-4.29;100.00
28181;BME280;15464;50.988;10.318;2023-12-04T00:31:24;99239.63;;;-4.23;100.00
28181;BME280;15464;50.988;10.318;2023-12-04T00:33:51;99231.88;;;-4.24;100.00
28181;BME280;15464;50.988;10.318;2023-12-04T00:36:18;99229.22;;;-4.20;100.00
28181;BME280;15464;50.988;10.318;2023-12-04T00:38:46;99220.63;;;-4.22;100.00
28181;BME280;15464;50.988;10.318;2023-12-04T00:41:12;99220.69;;;-4.25;100.00
28181;BME280;15464;50.988;10.318;2023-12-04T00:43:39;99220.63;;;-4.22;100.00
28181;BME280;15464;50.988;10.318;2023-12-04T00:46:06;99216.22;;;-4.18;100.00
28181;BME280;15464;50.988;10.318;2023-12-04T00:48:33;99210.06;;;-4.13;100.00
28181;BME280;15464;50.988;10.318;2023-12-04T00:51:00;99206.50;;;-4.09;100.00
28181;BME280;15464;50.988;10.318;2023-12-04T00:53:27;99202.06;;;-4.03;100.00
28181;BME280;15464;50.988;10.318;2023-12-04T00:55:54;99203.78;;;-4.02;100.00
28181;BME280;15464;50.988;10.318;2023-12-04T00:58:20;99197.72;;;-4.01;100.00
28181;BME280;15464;50.988;10.318;2023-12-04T01:00:47;99202.06;;;-4.02;100.00
28181;BME280;15464;50.988;10.318;2023-12-04T01:03:15;99185.66;;;-4.02;100.00
28181;BME280;15464;50.988;10.318;2023-12-04T01:05:42;99192.41;;;-3.95;100.00
28181;BME280;15464;50.988;10.318;2023-12-04T01:08:09;99182.81;;;-3.92;100.00
28181;BME280;15464;50.988;10.318;2023-12-04T01:10:35;99182.81;;;-3.92;100.00
28181;BME280;15464;50.988;10.318;2023-12-04T01:13:02;99169.69;;;-3.84;100.00
28181;BME280;15464;50.988;10.318;2023-12-04T01:15:29;99173.16;;;-3.85;100.00
28181;BME280;15464;50.988;10.318;2023-12-04T01:17:56;99171.25;;;-3.77;100.00
28181;BME280;15464;50.988;10.318;2023-12-04T01:20:23;99171.22;;;-3.76;100.00
28181;BME280;15464;50.988;10.318;2023-12-04T01:22:50;99176.31;;;-3.73;100.00
28181;BME280;15464;50.988;10.318;2023-12-04T01:25:17;99165.09;;;-3.73;100.00
28181;BME280;15464;50.988;10.318;2023-12-04T01:27:45;99163.31;;;-3.71;100.00
28181;BME280;15464;50.988;10.318;2023-12-04T01:30:12;99170.09;;;-3.66;100.00
28181;BME280;15464;50.988;10.318;2023-12-04T01:32:40;99166.63;;;-3.66;100.00
28181;BME280;15464;50.988;10.318;2023-12-04T01:35:07;99166.47;;;-3.60;100.00
28181;BME280;15464;50.988;10.318;2023-12-04T01:37:34;99160.41;;;-3.59;100.00
28181;BME280;15464;50.988;10.318;2023-12-04T01:40:00;99155.97;;;-3.54;100.00
28181;BME280;15464;50.988;10.318;2023-12-04T01:42:27;99154.19;;;-3.52;100.00
28181;BME280;15464;50.988;10.318;2023-12-04T01:44:55;99146.41;;;-3.52;100.00
28181;BME280;15464;50.988;10.318;2023-12-04T01:47:22;99148.00;;;-3.46;100.00
28181;BME280;15464;50.988;10.318;2023-12-04T01:49:49;99153.25;;;-3.49;100.00
28181;BME280;15464;50.988;10.318;2023-12-04T01:52:16;99151.34;;;-3.43;100.00
28181;BME280;15464;50.988;10.318;2023-12-04T01:54:43;99146.00;;;-3.37;100.00
28181;BME280;15464;50.988;10.318;2023-12-04T01:57:10;99140.75;;;-3.34;100.00
28181;BME280;15464;50.988;10.318;2023-12-04T01:59:37;99138.16;;;-3.34;100.00
28181;BME280;15464;50.988;10.318;2023-12-04T02:02:05;99137.16;;;-3.30;100.00
28181;BME280;15464;50.988;10.318;2023-12-04T02:04:32;99142.34;;;-3.30;100.00
28181;BME280;15464;50.988;10.318;2023-12-04T02:07:00;99141.50;;;-3.30;100.00
28181;BME280;15464;50.988;10.318;2023-12-04T02:09:28;99137.28;;;-3.33;100.00
28181;BME280;15464;50.988;10.318;2023-12-04T02:11:56;99128.50;;;-3.29;100.00
28181;BME280;15464;50.988;10.318;2023-12-04T02:14:24;99135.56;;;-3.34;100.00
28181;BME280;15464;50.988;10.318;2023-12-04T02:16:52;99123.31;;;-3.29;100.00
28181;BME280;15464;50.988;10.318;2023-12-04T02:19:20;99121.72;;;-3.33;99.76
28181;BME280;15464;50.988;10.318;2023-12-04T02:21:47;99125.19;;;-3.34;100.00
28181;BME280;15464;50.988;10.318;2023-12-04T02:24:14;99109.47;;;-3.28;100.00
28181;BME280;15464;50.988;10.318;2023-12-04T02:26:47;99111.19;;;-3.28;100.00
28181;BME280;15464;50.988;10.318;2023-12-04T02:29:26;99113.78;;;-3.28;100.00
28181;BME280;15464;50.988;10.318;2023-12-04T02:31:57;99106.28;;;-3.06;96.92
28181;BME280;15464;50.988;10.318;2023-12-04T02:34:25;99101.28;;;-3.12;97.62
28181;BME280;15464;50.988;10.318;2023-12-04T02:36:54;99097.03;;;-3.16;98.08
28181;BME280;15464;50.988;10.318;2023-12-04T02:39:21;99109.19;;;-3.18;98.53
28181;BME280;15464;50.988;10.318;2023-12-04T02:41:48;99097.03;;;-3.16;99.33
28181;BME280;15464;50.988;10.318;2023-12-04T02:44:15;99098.81;;;-3.18;99.75
28181;BME280;15464;50.988;10.318;2023-12-04T02:46:42;99098.94;;;-3.21;99.46
28181;BME280;15464;50.988;10.318;2023-12-04T02:49:09;99094.47;;;-3.18;99.17
28181;BME280;15464;50.988;10.318;2023-12-04T02:51:36;99091.78;;;-3.13;98.15
28181;BME280;15464;50.988;10.318;2023-12-04T02:54:03;99088.31;;;-3.12;98.33
28181;BME280;15464;50.988;10.318;2023-12-04T02:56:30;99087.44;;;-3.13;98.28
28181;BME280;15464;50.988;10.318;2023-12-04T02:58:56;99082.19;;;-3.11;98.20
28181;BME280;15464;50.988;10.318;2023-12-04T03:01:23;99080.47;;;-3.11;96.95
28181;BME280;15464;50.988;10.318;2023-12-04T03:03:50;99073.53;;;-3.10;97.53
28181;BME280;15464;50.988;10.318;2023-12-04T03:06:17;99078.72;;;-3.10;97.21
28181;BME280;15464;50.988;10.318;2023-12-04T03:08:44;99070.75;;;-3.04;96.77
28181;BME280;15464;50.988;10.318;2023-12-04T03:11:11;99071.66;;;-3.05;96.55
28181;BME280;15464;50.988;10.318;2023-12-04T03:13:38;99073.47;;;-3.07;97.72
28181;BME280;15464;50.988;10.318;2023-12-04T03:16:05;99058.78;;;-3.08;97.92
28181;BME280;15464;50.988;10.318;2023-12-04T03:18:32;99056.69;;;-2.96;97.33
28181;BME280;15464;50.988;10.318;2023-12-04T03:20:58;99052.31;;;-2.94;95.92
28181;BME280;15464;50.988;10.318;2023-12-04T03:23:25;99051.50;;;-2.96;96.48
28181;BME280;15464;50.988;10.318;2023-12-04T03:25:52;99052.34;;;-2.95;96.73
28181;BME280;15464;50.988;10.318;2023-12-04T03:28:19;99053.31;;;-2.99;96.71
28181;BME280;15464;50.988;10.318;2023-12-04T03:30:46;99053.31;;;-2.99;97.15
28181;BME280;15464;50.988;10.318;2023-12-04T03:33:13;99048.94;;;-2.97;96.28
28181;BME280;15464;50.988;10.318;2023-12-04T03:35:40;99047.41;;;-3.04;95.77
28181;BME280;15464;50.988;10.318;2023-12-04T03:38:06;99050.09;;;-3.07;96.20
28181;BME280;15464;50.988;10.318;2023-12-04T03:40:33;99056.19;;;-3.08;96.27
28181;BME280;15464;50.988;10.318;2023-12-04T03:43:00;99048.41;;;-3.08;96.58
28181;BME280;15464;50.988;10.318;2023-12-04T03:45:27;99045.03;;;-3.12;96.11
28181;BME280;15464;50.988;10.318;2023-12-04T03:47:54;99043.41;;;-3.14;95.76
28181;BME280;15464;50.988;10.318;2023-12-04T03:50:21;99038.41;;;-3.22;95.77
28181;BME280;15464;50.988;10.318;2023-12-04T03:52:48;99035.06;;;-3.26;96.18
28181;BME280;15464;50.988;10.318;2023-12-04T03:55:14;99032.53;;;-3.27;95.86
28181;BME280;15464;50.988;10.318;2023-12-04T03:57:41;99031.56;;;-3.25;96.27
28181;BME280;15464;50.988;10.318;2023-12-04T04:00:09;99038.44;;;-3.23;97.18
28181;BME280;15464;50.988;10.318;2023-12-04T04:02:38;99035.00;;;-3.24;97.70
28181;BME280;15464;50.988;10.318;2023-12-04T04:05:05;99024.59;;;-3.22;97.22
28181;BME280;15464;50.988;10.318;2023-12-04T04:07:32;99022.03;;;-3.24;97.51
28181;BME280;15464;50.988;10.318;2023-12-04T04:09:59;99022.88;;;-3.23;97.64
28181;BME280;15464;50.988;10.318;2023-12-04T04:12:27;99008.84;;;-3.16;96.08
28181;BME280;15464;50.988;10.318;2023-12-04T04:14:54;99013.38;;;-3.23;94.96
28181;BME280;15464;50.988;10.318;2023-12-04T04:17:20;99014.31;;;-3.26;95.55
28181;BME280;15464;50.988;10.318;2023-12-04T04:19:47;99011.75;;;-3.26;95.71
28181;BME280;15464;50.988;10.318;2023-12-04T04:22:14;99000.44;;;-3.25;95.97
28181;BME280;15464;50.988;10.318;2023-12-04T04:24:41;99003.09;;;-3.26;94.97
28181;BME280;15464;50.988;10.318;2023-12-04T04:27:07;99007.34;;;-3.23;94.99
28181;BME280;15464;50.988;10.318;2023-12-04T04:29:34;98990.88;;;-3.22;94.83
28181;BME280;15464;50.988;10.318;2023-12-04T04:32:01;98983.22;;;-3.26;94.33
28181;BME280;15464;50.988;10.318;2023-12-04T04:34:28;98995.25;;;-3.25;94.21
28181;BME280;15464;50.988;10.318;2023-12-04T04:36:55;98991.88;;;-3.27;94.61
28181;BME280;15464;50.988;10.318;2023-12-04T04:39:22;98991.00;;;-3.26;94.97
28181;BME280;15464;50.988;10.318;2023-12-04T04:41:49;98985.81;;;-3.26;95.13
28181;BME280;15464;50.988;10.318;2023-12-04T04:44:16;98980.69;;;-3.29;95.10
28181;BME280;15464;50.988;10.318;2023-12-04T04:46:44;98980.72;;;-3.30;94.84
28181;BME280;15464;50.988;10.318;2023-12-04T04:49:10;98979.09;;;-3.33;94.78
28181;BME280;15464;50.988;10.318;2023-12-04T04:51:37;98973.81;;;-3.30;94.34
28181;BME280;15464;50.988;10.318;2023-12-04T04:54:04;98973.69;;;-3.25;94.32
28181;BME280;15464;50.988;10.318;2023-12-04T04:56:31;98965.94;;;-3.27;94.10
28181;BME280;15464;50.988;10.318;2023-12-04T04:58:58;98961.63;;;-3.26;94.17
28181;BME280;15464;50.988;10.318;2023-12-04T05:01:25;98966.84;;;-3.28;94.03
28181;BME280;15464;50.988;10.318;2023-12-04T05:03:52;98966.78;;;-3.26;94.18
28181;BME280;15464;50.988;10.318;2023-12-04T05:06:19;98960.66;;;-3.23;94.33
28181;BME280;15464;50.988;10.318;2023-12-04T05:08:46;98956.47;;;-3.28;94.28
28181;BME280;15464;50.988;10.318;2023-12-04T05:11:14;98952.97;;;-3.27;93.71
28181;BME280;15464;50.988;10.318;2023-12-04T05:13:42;98946.97;;;-3.29;92.86
28181;BME280;15464;50.988;10.318;2023-12-04T05:16:09;98945.38;;;-3.33;93.54
28181;BME280;15464;50.988;10.318;2023-12-04T05:18:37;98937.63;;;-3.34;93.73
28181;BME280;15464;50.988;10.318;2023-12-04T05:21:09;98941.94;;;-3.33;93.06
28181;BME280;15464;50.988;10.318;2023-12-04T05:23:37;98930.75;;;-3.35;93.11
28181;BME280;15464;50.988;10.318;2023-12-04T05:26:07;98936.91;;;-3.38;93.38
28181;BME280;15464;50.988;10.318;2023-12-04T05:28:34;98935.19;;;-3.39;93.93
28181;BME280;15464;50.988;10.318;2023-12-04T05:31:01;98930.00;;;-3.39;94.03
28181;BME280;15464;50.988;10.318;2023-12-04T05:33:28;98931.88;;;-3.44;94.24
28181;BME280;15464;50.988;10.318;2023-12-04T05:35:55;98926.59;;;-3.41;93.87
28181;BME280;15464;50.988;10.318;2023-12-04T05:38:22;98930.84;;;-3.38;92.89
28181;BME280;15464;50.988;10.318;2023-12-04T05:40:49;98932.63;;;-3.40;92.75
28181;BME280;15464;50.988;10.318;2023-12-04T05:43:15;98930.94;;;-3.41;92.93
28181;BME280;15464;50.988;10.318;2023-12-04T05:45:42;98925.19;;;-3.51;93.25
28181;BME280;15464;50.988;10.318;2023-12-04T05:48:09;98922.59;;;-3.51;93.59
28181;BME280;15464;50.988;10.318;2023-12-04T05:50:36;98923.47;;;-3.52;93.47
28181;BME280;15464;50.988;10.318;2023-12-04T05:53:03;98919.81;;;-3.45;93.38
28181;BME280;15464;50.988;10.318;2023-12-04T05:55:30;98920.72;;;-3.46;93.20
28181;BME280;15464;50.988;10.318;2023-12-04T05:57:57;98913.81;;;-3.47;93.17
28181;BME280;15464;50.988;10.318;2023-12-04T06:00:24;98917.22;;;-3.45;92.74
28181;BME280;15464;50.988;10.318;2023-12-04T06:02:54;98918.28;;;-3.52;92.54
28181;BME280;15464;50.988;10.318;2023-12-04T06:05:21;98909.63;;;-3.51;93.12
28181;BME280;15464;50.988;10.318;2023-12-04T06:07:50;98906.16;;;-3.50;92.30
28181;BME280;15464;50.988;10.318;2023-12-04T06:10:17;98907.94;;;-3.52;92.41
28181;BME280;15464;50.988;10.318;2023-12-04T06:12:44;98909.63;;;-3.51;92.89
28181;BME280;15464;50.988;10.318;2023-12-04T06:15:11;98908.59;;;-3.45;92.71
28181;BME280;15464;50.988;10.318;2023-12-04T06:17:37;98906.03;;;-3.47;92.29
28181;BME280;15464;50.988;10.318;2023-12-04T06:20:05;98902.44;;;-3.43;92.39
28181;BME280;15464;50.988;10.318;2023-12-04T06:22:33;98895.59;;;-3.44;92.03
28181;BME280;15464;50.988;10.318;2023-12-04T06:25:00;98904.16;;;-3.42;91.34
28181;BME280;15464;50.988;10.318;2023-12-04T06:27:27;98902.44;;;-3.43;91.49
28181;BME280;15464;50.988;10.318;2023-12-04T06:29:55;98903.25;;;-3.41;90.99
28181;BME280;15464;50.988;10.318;2023-12-04T06:32:22;98903.31;;;-3.42;91.63
28181;BME280;15464;50.988;10.318;2023-12-04T06:34:49;98908.66;;;-3.48;92.87
28181;BME280;15464;50.988;10.318;2023-12-04T06:37:16;98902.75;;;-3.52;93.40
28181;BME280;15464;50.988;10.318;2023-12-04T06:39:45;98894.78;;;-3.46;92.75
28181;BME280;15464;50.988;10.318;2023-12-04T06:42:12;98903.44;;;-3.47;92.61
28181;BME280;15464;50.988;10.318;2023-12-04T06:44:39;98905.19;;;-3.47;91.91
28181;BME280;15464;50.988;10.318;2023-12-04T06:47:08;98909.44;;;-3.45;91.96
28181;BME280;15464;50.988;10.318;2023-12-04T06:49:35;98903.41;;;-3.45;93.29
28181;BME280;15464;50.988;10.318;2023-12-04T06:58:48;98899.75;;;-3.38;92.13
28181;BME280;15464;50.988;10.318;2023-12-04T07:01:15;98898.78;;;-3.36;91.58
28181;BME280;15464;50.988;10.318;2023-12-04T07:03:42;98894.41;;;-3.34;91.57
28181;BME280;15464;50.988;10.318;2023-12-04T07:06:09;98898.72;;;-3.33;91.84
28181;BME280;15464;50.988;10.318;2023-12-04T07:08:36;98891.53;;;-3.25;89.93
28181;BME280;15464;50.988;10.318;2023-12-04T07:11:03;98888.84;;;-3.21;90.64
28181;BME280;15464;50.988;10.318;2023-12-04T07:13:31;98883.66;;;-3.21;90.24
28181;BME280;15464;50.988;10.318;2023-12-04T07:15:57;98877.53;;;-3.19;89.17
28181;BME280;15464;50.988;10.318;2023-12-04T07:18:26;98877.59;;;-3.20;89.15
28181;BME280;15464;50.988;10.318;2023-12-04T07:20:53;98880.22;;;-3.22;87.88
28181;BME280;15464;50.988;10.318;2023-12-04T07:23:19;98885.38;;;-3.20;87.48
28181;BME280;15464;50.988;10.318;2023-12-04T07:25:47;98882.84;;;-3.23;87.54
28181;BME280;15464;50.988;10.318;2023-12-04T07:28:16;98891.63;;;-3.28;87.99
28181;BME280;15464;50.988;10.318;2023-12-04T07:30:43;98888.16;;;-3.27;88.61
28181;BME280;15464;50.988;10.318;2023-12-04T07:33:10;98881.91;;;-3.21;87.51
28181;BME280;15464;50.988;10.318;2023-12-04T07:35:36;98882.66;;;-3.17;87.66
28181;BME280;15464;50.988;10.318;2023-12-04T07:38:03;98881.03;;;-3.20;87.68
28181;BME280;15464;50.988;10.318;2023-12-04T07:40:30;98876.72;;;-3.21;86.55
28181;BME280;15464;50.988;10.318;2023-12-04T07:42:57;98875.59;;;-3.12;86.77
28181;BME280;15464;50.988;10.318;2023-12-04T07:45:24;98856.22;;;-3.01;86.25
28181;BME280;15464;50.988;10.318;2023-12-04T07:47:50;98865.63;;;-2.98;85.41
28181;BME280;15464;50.988;10.318;2023-12-04T07:50:17;98868.88;;;-2.92;84.42
28181;BME280;15464;50.988;10.318;2023-12-04T07:52:44;98866.03;;;-2.84;84.42
28181;BME280;15464;50.988;10.318;2023-12-04T07:55:10;98860.72;;;-2.81;84.53
28181;BME280;15464;50.988;10.318;2023-12-04T07:57:37;98861.69;;;-2.83;84.48
28181;BME280;15464;50.988;10.318;2023-12-04T08:00:05;98856.53;;;-2.85;84.71
28181;BME280;15464;50.988;10.318;2023-12-04T08:02:32;98856.34;;;-2.79;84.55
28181;BME280;15464;50.988;10.318;2023-12-04T08:05:00;98861.44;;;-2.76;83.24
28181;BME280;15464;50.988;10.318;2023-12-04T08:07:27;98852.81;;;-2.76;83.52
28181;BME280;15464;50.988;10.318;2023-12-04T08:09:54;98851.06;;;-2.76;83.52
28181;BME280;15464;50.988;10.318;2023-12-04T08:12:21;98846.66;;;-2.74;82.90
28181;BME280;15464;50.988;10.318;2023-12-04T08:14:48;98858.72;;;-2.73;82.83
28181;BME280;15464;50.988;10.318;2023-12-04T08:17:14;98849.25;;;-2.74;83.40
28181;BME280;15464;50.988;10.318;2023-12-04T08:19:41;98848.34;;;-2.73;83.14
28181;BME280;15464;50.988;10.318;2023-12-04T08:22:08;98846.56;;;-2.71;83.24
28181;BME280;15464;50.988;10.318;2023-12-04T08:24:35;98842.06;;;-2.66;82.82
28181;BME280;15464;50.988;10.318;2023-12-04T08:27:02;98835.84;;;-2.62;83.23
28181;BME280;15464;50.988;10.318;2023-12-04T08:29:29;98833.41;;;-2.66;83.83
28181;BME280;15464;50.988;10.318;2023-12-04T08:31:55;98834.06;;;-2.60;83.75
28181;BME280;15464;50.988;10.318;2023-12-04T08:34:22;98830.22;;;-2.50;83.00
28181;BME280;15464;50.988;10.318;2023-12-04T08:36:49;98827.72;;;-2.51;82.65
28181;BME280;15464;50.988;10.318;2023-12-04T08:39:15;98828.22;;;-2.41;82.77
28181;BME280;15464;50.988;10.318;2023-12-04T08:41:46;98830.38;;;-2.29;81.48
28181;BME280;15464;50.988;10.318;2023-12-04T08:44:26;98817.03;;;-2.19;81.51
28181;BME280;15464;50.988;10.318;2023-12-04T08:46:54;98826.56;;;-2.19;81.96
28181;BME280;15464;50.988;10.318;2023-12-04T08:49:21;98835.03;;;-2.14;82.24
28181;BME280;15464;50.988;10.318;2023-12-04T08:51:54;98833.78;;;-2.04;82.43
28181;BME280;15464;50.988;10.318;2023-12-04T08:54:20;98828.31;;;-1.96;82.66
28181;BME280;15464;50.988;10.318;2023-12-04T08:56:47;98828.16;;;-1.92;82.65
28181;BME280;15464;50.988;10.318;2023-12-04T08:59:14;98836.56;;;-1.85;81.44
28181;BME280;15464;50.988;10.318;2023-12-04T09:01:41;98840.75;;;-1.81;80.51
28181;BME280;15464;50.988;10.318;2023-12-04T09:04:08;98843.06;;;-1.74;74.59
28181;BME280;15464;50.988;10.318;2023-12-04T09:06:36;98837.53;;;-1.65;77.59
28181;BME280;15464;50.988;10.318;2023-12-04T09:09:05;98829.34;;;-1.55;76.62
28181;BME280;15464;50.988;10.318;2023-12-04T09:11:42;98838.38;;;-1.42;78.07
28181;BME280;15464;50.988;10.318;2023-12-04T09:14:10;98819.28;;;-1.41;76.11
28181;BME280;15464;50.988;10.318;2023-12-04T09:16:37;98825.94;;;-1.34;77.90
28181;BME280;15464;50.988;10.318;2023-12-04T09:19:04;98829.13;;;-1.28;78.50
28181;BME280;15464;50.988;10.318;2023-12-04T09:21:31;98833.38;;;-1.25;77.99
28181;BME280;15464;50.988;10.318;2023-12-04T09:23:58;98825.59;;;-1.25;75.76
28181;BME280;15464;50.988;10.318;2023-12-04T09:26:25;98829.50;;;-1.15;75.73
28181;BME280;15464;50.988;10.318;2023-12-04T09:28:51;98828.09;;;-1.02;76.39
28181;BME280;15464;50.988;10.318;2023-12-04T09:31:18;98830.31;;;-0.93;75.64
28181;BME280;15464;50.988;10.318;2023-12-04T09:33:46;98826.09;;;-0.75;76.16
28181;BME280;15464;50.988;10.318;2023-12-04T09:36:16;98823.06;;;-0.64;76.62
28181;BME280;15464;50.988;10.318;2023-12-04T09:38:43;98830.94;;;-0.66;72.74
28181;BME280;15464;50.988;10.318;2023-12-04T09:41:12;98826.16;;;-0.56;74.54
28181;BME280;15464;50.988;10.318;2023-12-04T09:43:40;98824.41;;;-0.56;74.75
28181;BME280;15464;50.988;10.318;2023-12-04T09:46:08;98817.19;;;-0.49;75.12
28181;BME280;15464;50.988;10.318;2023-12-04T09:48:36;98809.78;;;-0.58;74.89
28181;BME280;15464;50.988;10.318;2023-12-04T09:51:04;98817.34;;;-0.52;75.10
28181;BME280;15464;50.988;10.318;2023-12-04T09:53:32;98807.63;;;-0.49;74.32
28181;BME280;15464;50.988;10.318;2023-12-04T09:56:04;98795.16;;;-0.42;72.26
28181;BME280;15464;50.988;10.318;2023-12-04T09:58:34;98797.66;;;-0.39;71.62
28181;BME280;15464;50.988;10.318;2023-12-04T10:01:03;98800.63;;;-0.28;73.68
28181;BME280;15464;50.988;10.318;2023-12-04T10:03:30;98787.53;;;-0.26;73.43
28181;BME280;15464;50.988;10.318;2023-12-04T10:05:58;98781.44;;;-0.25;71.11
28181;BME280;15464;50.988;10.318;2023-12-04T10:08:25;98780.94;;;-0.15;73.07
28181;BME280;15464;50.988;10.318;2023-12-04T10:10:52;98768.75;;;-0.14;70.93
28181;BME280;15464;50.988;10.318;2023-12-04T10:13:18;98756.56;;;-0.14;71.26
28181;BME280;15464;50.988;10.318;2023-12-04T10:16:05;98754.88;;;-0.15;71.69
28181;BME280;15464;50.988;10.318;2023-12-04T10:18:33;98754.09;;;-0.17;71.66
28181;BME280;15464;50.988;10.318;2023-12-04T10:21:00;98746.25;;;-0.17;71.46
28181;BME280;15464;50.988;10.318;2023-12-04T10:23:43;98743.44;;;-0.31;72.01
28181;BME280;15464;50.988;10.318;2023-12-04T10:26:14;98736.94;;;-0.41;72.66
28181;BME280;15464;50.988;10.318;2023-12-04T10:28:58;98723.91;;;-0.41;71.80
28181;BME280;15464;50.988;10.318;2023-12-04T10:31:25;98726.41;;;-0.38;71.43
28181;BME280;15464;50.988;10.318;2023-12-04T10:33:52;98721.09;;;-0.36;71.13
28181;BME280;15464;50.988;10.318;2023-12-04T10:36:19;98717.66;;;-0.37;72.35
28181;BME280;15464;50.988;10.318;2023-12-04T10:38:45;98712.16;;;-0.31;71.71
28181;BME280;15464;50.988;10.318;2023-12-04T10:41:13;98704.22;;;-0.28;70.93
28181;BME280;15464;50.988;10.318;2023-12-04T10:43:48;98690.91;;;-0.22;71.91
28181;BME280;15464;50.988;10.318;2023-12-04T10:46:27;98681.91;;;-0.15;72.65
28181;BME280;15464;50.988;10.318;2023-12-04T10:48:54;98678.09;;;-0.08;71.44
28181;BME280;15464;50.988;10.318;2023-12-04T10:51:21;98673.50;;;-0.03;71.05
28181;BME280;15464;50.988;10.318;2023-12-04T10:53:48;98662.78;;;0.04;72.59
28181;BME280;15464;50.988;10.318;2023-12-04T10:56:22;98654.97;;;0.04;72.91
28181;BME280;15464;50.988;10.318;2023-12-04T10:58:51;98650.25;;;0.12;73.21
28181;BME280;15464;50.988;10.318;2023-12-04T11:01:20;98651.09;;;0.12;72.07
28181;BME280;15464;50.988;10.318;2023-12-04T11:03:52;98648.50;;;-0.07;71.12
28181;BME280;15464;50.988;10.318;2023-12-04T11:06:21;98649.75;;;0.04;67.13
28181;BME280;15464;50.988;10.318;2023-12-04T11:08:48;98639.72;;;0.13;61.31
28181;BME280;15464;50.988;10.318;2023-12-04T11:11:30;98639.13;;;0.25;65.78
28181;BME280;15464;50.988;10.318;2023-12-04T11:14:01;98632.22;;;0.24;62.71
28181;BME280;15464;50.988;10.318;2023-12-04T11:16:38;98631.09;;;0.30;65.85
28181;BME280;15464;50.988;10.318;2023-12-04T11:19:22;98631.63;;;0.36;66.37
28181;BME280;15464;50.988;10.318;2023-12-04T11:21:51;98632.53;;;0.35;62.66
28181;BME280;15464;50.988;10.318;2023-12-04T11:24:21;98615.44;;;0.47;65.28
28181;BME280;15464;50.988;10.318;2023-12-04T11:26:48;98618.66;;;0.52;67.62
28181;BME280;15464;50.988;10.318;2023-12-04T11:29:16;98616.28;;;0.48;67.70
28181;BME280;15464;50.988;10.318;2023-12-04T11:31:44;98602.16;;;0.34;64.92
28181;BME280;15464;50.988;10.318;2023-12-04T11:34:12;98606.41;;;0.37;63.78
28181;BME280;15464;50.988;10.318;2023-12-04T11:36:39;98614.97;;;0.39;61.89
28181;BME280;15464;50.988;10.318;2023-12-04T11:39:10;98608.06;;;0.38;64.69
28181;BME280;15464;50.988;10.318;2023-12-04T11:41:37;98599.78;;;0.30;64.11
28181;BME280;15464;50.988;10.318;2023-12-04T11:44:12;98592.41;;;0.38;62.46
28181;BME280;15464;50.988;10.318;2023-12-04T11:46:55;98587.50;;;0.32;62.94
28181;BME280;15464;50.988;10.318;2023-12-04T11:49:27;98590.75;;;0.37;60.61
28181;BME280;15464;50.988;10.318;2023-12-04T11:51:59;98580.44;;;0.34;59.92
28181;BME280;15464;50.988;10.318;2023-12-04T11:54:27;98581.44;;;0.31;60.19
28181;BME280;15464;50.988;10.318;2023-12-04T11:59:27;98582.97;;;0.18;63.71
28181;BME280;15464;50.988;10.318;2023-12-04T12:01:55;98583.53;;;0.25;61.54
28181;BME280;15464;50.988;10.318;2023-12-04T12:04:25;98573.84;;;0.27;61.95
28181;BME280;15464;50.988;10.318;2023-12-04T12:06:54;98566.31;;;0.38;60.52
28181;BME280;15464;50.988;10.318;2023-12-04T12:09:22;98562.28;;;0.50;61.41
28181;BME280;15464;50.988;10.318;2023-12-04T12:11:49;98560.09;;;0.58;61.78
28181;BME280;15464;50.988;10.318;2023-12-04T12:14:20;98554.81;;;0.59;62.73
28181;BME280;15464;50.988;10.318;2023-12-04T12:16:47;98555.66;;;0.60;60.92
28181;BME280;15464;50.988;10.318;2023-12-04T12:19:14;98553.56;;;0.66;63.56
28181;BME280;15464;50.988;10.318;2023-12-04T12:21:41;98545.22;;;0.60;61.79
28181;BME280;15464;50.988;10.318;2023-12-04T12:24:11;98537.75;;;0.69;62.03
28181;BME280;15464;50.988;10.318;2023-12-04T12:26:39;98536.81;;;0.70;65.00
28181;BME280;15464;50.988;10.318;2023-12-04T12:29:06;98534.81;;;0.75;65.05
28181;BME280;15464;50.988;10.318;2023-12-04T12:31:33;98518.22;;;0.76;63.46
28181;BME280;15464;50.988;10.318;2023-12-04T12:33:59;98519.59;;;0.84;59.69
28181;BME280;15464;50.988;10.318;2023-12-04T12:36:26;98511.75;;;0.84;60.72
28181;BME280;15464;50.988;10.318;2023-12-04T12:38:54;98506.72;;;0.80;60.75
28181;BME280;15464;50.988;10.318;2023-12-04T12:41:20;98509.56;;;0.76;61.37
28181;BME280;15464;50.988;10.318;2023-12-04T12:43:51;98513.00;;;0.76;61.87
28181;BME280;15464;50.988;10.318;2023-12-04T12:46:18;98508.63;;;0.77;63.72
28181;BME280;15464;50.988;10.318;2023-12-04T12:48:47;98507.91;;;0.75;62.69
28181;BME280;15464;50.988;10.318;2023-12-04T12:51:14;98498.72;;;0.84;63.51
28181;BME280;15464;50.988;10.318;2023-12-04T12:53:43;98500.16;;;0.89;64.31
28181;BME280;15464;50.988;10.318;2023-12-04T12:56:16;98488.72;;;0.92;60.39
28181;BME280;15464;50.988;10.318;2023-12-04T12:58:42;98489.78;;;0.88;58.25
28181;BME280;15464;50.988;10.318;2023-12-04T13:01:10;98492.91;;;0.94;59.71
28181;BME280;15464;50.988;10.318;2023-12-04T13:03:37;98486.03;;;0.93;59.37